createdAt,value
2019-05-12T00:02:02.835Z,8.37
2019-05-12T00:04:35.117Z,8.39
2019-05-12T00:07:08.759Z,8.39
2019-05-12T00:09:41.143Z,8.37
2019-05-12T00:12:13.400Z,8.35
2019-05-12T00:14:45.687Z,8.35
2019-05-12T00:17:18.862Z,8.31
2019-05-12T00:19:51.402Z,8.27
2019-05-12T00:22:23.644Z,8.23
2019-05-12T00:24:58.292Z,8.22
2019-05-12T00:27:29.876Z,8.17
2019-05-12T00:30:02.148Z,8.14
2019-05-12T00:32:34.871Z,8.12
2019-05-12T00:35:07.859Z,8.11
2019-05-12T00:37:40.389Z,8.07
2019-05-12T00:40:12.604Z,8.03
2019-05-12T00:42:44.805Z,8.01
2019-05-12T00:45:18.096Z,8.00
2019-05-12T00:47:50.438Z,7.99
2019-05-12T00:50:22.697Z,8.02
2019-05-12T00:52:54.948Z,8.00
2019-05-12T00:55:28.964Z,7.98
2019-05-12T00:58:01.116Z,7.96
2019-05-12T01:00:33.327Z,7.94
2019-05-12T01:03:08.408Z,7.92
2019-05-12T01:05:39.492Z,7.91
2019-05-12T01:08:11.700Z,7.91
2019-05-12T01:10:47.800Z,7.89
2019-05-12T01:13:19.369Z,7.87
2019-05-12T01:15:51.613Z,7.83
2019-05-12T01:18:23.823Z,7.80
2019-05-12T01:20:58.267Z,7.76
2019-05-12T01:23:29.956Z,7.75
2019-05-12T01:26:02.155Z,7.75
2019-05-12T01:28:34.378Z,7.74
2019-05-12T01:31:08.579Z,7.74
2019-05-12T01:33:40.959Z,7.73
2019-05-12T01:36:15.511Z,7.70
2019-05-12T01:38:48.306Z,7.66
2019-05-12T01:41:20.639Z,7.66
2019-05-12T01:43:52.909Z,7.64
2019-05-12T01:46:25.139Z,7.63
2019-05-12T01:48:59.113Z,7.59
2019-05-12T01:51:31.398Z,7.61
2019-05-12T01:54:13.591Z,7.61
2019-05-12T01:56:38.262Z,7.57
2019-05-12T01:59:10.758Z,7.58
2019-05-12T02:01:42.962Z,7.55
2019-05-12T02:04:15.271Z,7.53
2019-05-12T02:06:48.568Z,7.50
2019-05-12T02:09:20.908Z,7.50
2019-05-12T02:11:53.143Z,7.51
2019-05-12T02:14:27.477Z,7.50
2019-05-12T02:16:59.289Z,7.52
2019-05-12T02:19:31.507Z,7.57
2019-05-12T02:22:03.755Z,7.64
2019-05-12T02:24:36.021Z,7.67
2019-05-12T02:27:08.363Z,7.67
2019-05-12T02:29:40.637Z,7.66
2019-05-12T02:32:12.883Z,7.66
2019-05-12T02:34:45.728Z,7.60
2019-05-12T02:37:18.146Z,7.56
2019-05-12T02:39:50.353Z,7.50
2019-05-12T02:42:24.382Z,7.48
2019-05-12T02:44:56.536Z,7.43
2019-05-12T02:47:28.753Z,7.37
2019-05-12T02:50:00.966Z,7.32
2019-05-12T02:52:34.893Z,7.27
2019-05-12T02:55:07.419Z,7.23
2019-05-12T02:57:45.037Z,7.21
2019-05-12T03:00:16.290Z,7.17
2019-05-12T03:02:48.510Z,7.12
2019-05-12T03:05:20.706Z,7.10
2019-05-12T03:07:55.233Z,7.10
2019-05-12T03:10:26.865Z,7.12
2019-05-12T03:12:59.084Z,7.09
2019-05-12T03:15:31.306Z,7.04
2019-05-12T03:18:06.172Z,7.00
2019-05-12T03:20:37.456Z,6.98
2019-05-12T03:23:09.714Z,6.94
2019-05-12T03:25:45.377Z,6.89
2019-05-12T03:28:16.349Z,6.86
2019-05-12T03:30:49.431Z,6.82
2019-05-12T03:33:33.602Z,6.80
2019-05-12T03:36:00.668Z,6.77
2019-05-12T03:38:31.693Z,6.73
2019-05-12T03:41:05.302Z,6.72
2019-05-12T03:43:37.938Z,6.69
2019-05-12T03:46:10.174Z,6.66
2019-05-12T03:48:45.421Z,6.61
2019-05-12T03:51:16.371Z,6.55
2019-05-12T03:53:48.633Z,6.53
2019-05-12T03:56:20.854Z,6.52
2019-05-12T03:58:54.096Z,6.49
2019-05-12T04:01:26.502Z,6.49
2019-05-12T04:03:58.723Z,6.47
2019-05-12T04:06:30.962Z,6.47
2019-05-12T04:09:04.753Z,6.47
2019-05-12T04:11:36.999Z,6.47
2019-05-12T04:14:09.251Z,6.48
2019-05-12T04:16:44.876Z,6.51
2019-05-12T04:19:15.941Z,6.60
2019-05-12T04:21:48.192Z,6.68
2019-05-12T04:24:20.435Z,6.81
2019-05-12T04:26:55.152Z,6.94
2019-05-12T04:29:27.679Z,7.02
2019-05-12T04:31:59.939Z,7.09
2019-05-12T04:34:34.304Z,7.18
2019-05-12T04:37:07.257Z,7.32
2019-05-12T04:39:39.461Z,7.53
2019-05-12T04:42:14.680Z,7.76
2019-05-12T04:44:45.609Z,8.01
2019-05-12T04:47:17.909Z,8.18
2019-05-12T04:49:50.174Z,8.29
2019-05-12T04:52:24.848Z,8.49
2019-05-12T04:54:56.311Z,8.65
2019-05-12T04:57:28.350Z,8.81
2019-05-12T05:00:00.567Z,8.97
2019-05-12T05:02:36.275Z,9.07
2019-05-12T05:05:06.841Z,9.11
2019-05-12T05:07:39.109Z,9.13
2019-05-12T05:10:14.277Z,9.22
2019-05-12T05:12:45.275Z,9.53
2019-05-12T05:15:17.492Z,9.83
2019-05-12T05:17:49.740Z,10.08
2019-05-12T05:20:23.964Z,10.16
2019-05-12T05:22:56.336Z,10.04
2019-05-12T05:25:28.535Z,9.90
2019-05-12T05:28:00.731Z,9.76
2019-05-12T05:30:34.091Z,9.68
2019-05-12T05:33:10.256Z,9.59
2019-05-12T05:35:43.597Z,9.59
2019-05-12T05:38:20.598Z,9.57
2019-05-12T05:40:50.126Z,9.64
2019-05-12T05:43:24.171Z,9.64
2019-05-12T05:46:02.499Z,9.70
2019-05-12T05:48:32.177Z,9.76
2019-05-12T05:51:08.805Z,9.81
2019-05-12T05:53:38.644Z,9.79
2019-05-12T05:56:10.879Z,9.80
2019-05-12T05:58:47.007Z,9.85
2019-05-12T06:01:17.094Z,9.93
2019-05-12T06:03:49.291Z,10.03
2019-05-12T06:06:23.650Z,10.09
2019-05-12T06:08:55.452Z,10.10
2019-05-12T06:11:28.558Z,9.99
2019-05-12T06:14:03.256Z,9.93
2019-05-12T06:16:35.043Z,9.98
2019-05-12T06:19:07.312Z,10.06
2019-05-12T06:21:39.525Z,10.13
2019-05-12T06:24:15.539Z,10.14
2019-05-12T06:26:56.617Z,10.23
2019-05-12T06:29:21.846Z,10.30
2019-05-12T06:31:54.311Z,10.35
2019-05-12T06:34:26.660Z,10.39
2019-05-12T06:37:03.060Z,10.47
2019-05-12T06:39:34.356Z,10.51
2019-05-12T06:42:12.347Z,10.56
2019-05-12T06:44:43.758Z,10.58
2019-05-12T06:47:15.753Z,10.67
2019-05-12T06:49:48.872Z,10.72
2019-05-12T06:52:23.714Z,10.78
2019-05-12T06:54:56.822Z,10.80
2019-05-12T06:57:29.193Z,10.87
2019-05-12T07:00:01.487Z,10.95
2019-05-12T07:02:37.124Z,11.02
2019-05-12T07:05:07.942Z,11.06
2019-05-12T07:07:44.301Z,11.08
2019-05-12T07:10:35.479Z,11.06
2019-05-12T07:12:58.972Z,11.16
2019-05-12T07:15:23.851Z,11.22
2019-05-12T07:17:56.025Z,11.36
2019-05-12T07:20:29.299Z,11.39
2019-05-12T07:23:04.030Z,11.49
2019-05-12T07:25:36.967Z,11.60
2019-05-12T07:28:09.359Z,11.52
2019-05-12T07:30:43.894Z,11.67
2019-05-12T07:33:15.654Z,11.88
2019-05-12T07:35:48.006Z,12.34
2019-05-12T07:38:21.669Z,12.71
2019-05-12T07:40:54.193Z,12.80
2019-05-12T07:43:26.389Z,12.77
2019-05-12T07:46:02.524Z,12.93
2019-05-12T07:48:33.437Z,12.97
2019-05-12T07:51:06.280Z,12.93
2019-05-12T07:53:38.490Z,13.10
2019-05-12T07:56:10.708Z,13.25
2019-05-12T07:58:47.471Z,13.55
2019-05-12T08:01:17.154Z,14.01
2019-05-12T08:03:51.025Z,14.33
2019-05-12T08:06:24.415Z,14.14
2019-05-12T08:08:59.033Z,13.91
2019-05-12T08:11:36.664Z,13.61
2019-05-12T08:14:04.717Z,13.24
2019-05-12T08:16:37.229Z,13.09
2019-05-12T08:19:14.994Z,12.98
2019-05-12T08:21:49.116Z,13.23
2019-05-12T08:24:18.857Z,13.42
2019-05-12T08:27:01.455Z,13.57
2019-05-12T08:29:25.073Z,13.64
2019-05-12T08:31:57.346Z,13.56
2019-05-12T08:34:29.630Z,13.58
2019-05-12T08:37:01.813Z,13.56
2019-05-12T08:39:34.464Z,13.43
2019-05-12T08:42:06.689Z,13.30
2019-05-12T08:44:40.717Z,13.53
2019-05-12T08:47:15.223Z,13.55
2019-05-12T08:49:55.151Z,13.30
2019-05-12T08:52:23.540Z,13.16
2019-05-12T08:54:55.875Z,13.09
2019-05-12T08:57:34.835Z,12.94
2019-05-12T09:00:03.426Z,12.89
2019-05-12T09:02:39.854Z,13.13
2019-05-12T09:05:10.340Z,13.60
2019-05-12T09:07:43.565Z,13.86
2019-05-12T09:10:15.986Z,14.06
2019-05-12T09:12:48.259Z,14.36
2019-05-12T09:15:20.538Z,14.63
2019-05-12T09:17:56.836Z,15.21
2019-05-12T09:20:27.743Z,15.65
2019-05-12T09:23:00.858Z,15.75
2019-05-12T09:25:34.338Z,15.68
2019-05-12T09:28:09.172Z,15.68
2019-05-12T09:30:47.520Z,15.68
2019-05-12T09:33:15.403Z,15.70
2019-05-12T09:35:47.640Z,15.48
2019-05-12T09:38:21.620Z,15.63
2019-05-12T09:41:00.723Z,15.70
2019-05-12T09:43:28.438Z,15.69
2019-05-12T09:46:00.787Z,15.47
2019-05-12T09:48:33.804Z,15.29
2019-05-12T09:51:08.023Z,15.18
2019-05-12T09:53:50.583Z,14.86
2019-05-12T09:56:16.595Z,14.82
2019-05-12T09:58:59.018Z,14.71
2019-05-12T10:01:24.210Z,14.64
2019-05-12T10:03:56.541Z,14.56
2019-05-12T10:06:29.553Z,14.59
2019-05-12T10:09:03.460Z,14.44
2019-05-12T10:11:36.024Z,14.59
2019-05-12T10:14:10.767Z,14.82
2019-05-12T10:16:45.572Z,14.92
2019-05-12T10:19:17.451Z,14.91
2019-05-12T10:21:55.180Z,15.14
2019-05-12T10:24:23.744Z,15.33
2019-05-12T10:26:56.016Z,15.82
2019-05-12T10:29:30.692Z,15.92
2019-05-12T10:32:03.985Z,15.81
2019-05-12T10:34:40.268Z,15.35
2019-05-12T10:37:10.244Z,14.89
2019-05-12T10:39:42.501Z,14.40
2019-05-12T10:42:14.943Z,13.96
2019-05-12T10:44:47.031Z,13.41
2019-05-12T10:47:19.524Z,13.10
2019-05-12T10:49:53.790Z,13.09
2019-05-12T10:52:29.338Z,13.20
2019-05-12T10:54:59.688Z,13.34
2019-05-12T10:57:33.364Z,13.38
2019-05-12T11:00:05.807Z,13.40
2019-05-12T11:02:38.043Z,13.50
2019-05-12T11:05:20.678Z,13.67
2019-05-12T11:07:45.374Z,13.84
2019-05-12T11:10:20.146Z,13.85
2019-05-12T11:12:51.538Z,14.01
2019-05-12T11:15:24.504Z,14.30
2019-05-12T11:17:57.256Z,14.44
2019-05-12T11:20:30.173Z,14.68
2019-05-12T11:23:04.799Z,14.93
2019-05-12T11:25:37.050Z,15.51
2019-05-12T11:28:09.461Z,15.72
2019-05-12T11:30:43.670Z,15.82
2019-05-12T11:33:15.765Z,15.90
2019-05-12T11:35:48.230Z,15.56
2019-05-12T11:38:20.433Z,15.41
2019-05-12T11:40:53.794Z,15.54
2019-05-12T11:43:26.256Z,15.51
2019-05-12T11:45:58.872Z,15.25
2019-05-12T11:48:31.132Z,15.69
2019-05-12T11:51:03.963Z,17.60
2019-05-12T11:53:36.502Z,20.71
2019-05-12T11:56:09.695Z,22.89
2019-05-12T11:58:47.367Z,24.75
2019-05-12T12:01:16.006Z,25.80
2019-05-12T12:03:48.283Z,26.98
2019-05-12T12:06:20.589Z,25.26
2019-05-12T12:08:53.678Z,23.56
2019-05-12T12:11:28.114Z,25.73
2019-05-12T12:14:05.567Z,27.02
2019-05-12T12:16:34.185Z,24.16
2019-05-12T12:19:06.375Z,24.01
2019-05-12T12:21:40.379Z,23.58
2019-05-12T12:24:13.576Z,25.06
2019-05-12T12:26:46.791Z,26.81
2019-05-12T12:29:19.800Z,27.80
2019-05-12T12:31:52.636Z,28.75
2019-05-12T12:34:30.154Z,29.67
2019-05-12T12:37:00.001Z,30.22
2019-05-12T12:39:32.793Z,29.61
2019-05-12T12:42:05.619Z,29.25
2019-05-12T12:44:38.481Z,29.66
2019-05-12T12:47:11.282Z,29.85
2019-05-12T12:49:47.672Z,29.74
2019-05-12T12:52:18.643Z,30.34
2019-05-12T12:54:51.443Z,30.38
2019-05-12T12:57:24.226Z,30.20
2019-05-12T12:59:57.049Z,30.05
2019-05-12T13:02:29.867Z,30.28
2019-05-12T13:05:02.662Z,31.04
2019-05-12T13:07:35.469Z,30.44
2019-05-12T13:10:09.780Z,30.19
2019-05-12T13:12:43.817Z,30.74
2019-05-12T13:15:16.833Z,31.96
2019-05-12T13:17:49.611Z,31.68
2019-05-12T13:20:23.849Z,31.88
2019-05-12T13:22:56.807Z,31.14
2019-05-12T13:25:29.697Z,31.14
2019-05-12T13:28:10.369Z,31.42
2019-05-12T13:30:46.378Z,32.08
2019-05-12T13:33:14.751Z,32.17
2019-05-12T13:35:50.131Z,31.62
2019-05-12T13:38:20.608Z,32.03
2019-05-12T13:40:54.170Z,32.15
2019-05-12T13:43:28.197Z,32.33
2019-05-12T13:46:01.010Z,32.33
2019-05-12T13:48:33.811Z,32.09
2019-05-12T13:51:12.396Z,32.43
2019-05-12T13:53:46.350Z,31.80
2019-05-12T13:56:19.187Z,31.31
2019-05-12T13:58:50.199Z,31.31
2019-05-12T14:01:24.861Z,27.93
2019-05-12T14:03:58.343Z,24.63
2019-05-12T14:06:32.960Z,22.25
2019-05-12T14:09:04.532Z,21.04
2019-05-12T14:11:36.882Z,19.85
2019-05-12T14:14:15.166Z,18.88
2019-05-12T14:16:52.434Z,18.31
2019-05-12T14:19:19.006Z,17.85
2019-05-12T14:21:54.274Z,17.72
2019-05-12T14:24:26.394Z,17.57
2019-05-12T14:26:58.670Z,17.42
2019-05-12T14:29:30.914Z,17.21
2019-05-12T14:32:05.427Z,17.02
2019-05-12T14:34:37.136Z,16.76
2019-05-12T14:37:10.479Z,16.58
2019-05-12T14:39:48.098Z,16.55
2019-05-12T14:42:17.307Z,16.58
2019-05-12T14:44:49.927Z,16.54
2019-05-12T14:47:25.745Z,16.45
2019-05-12T14:49:57.304Z,16.34
2019-05-12T14:52:29.373Z,16.24
2019-05-12T14:55:03.431Z,16.08
2019-05-12T14:57:39.226Z,16.06
2019-05-12T15:00:11.130Z,16.01
2019-05-12T15:02:43.942Z,16.08
2019-05-12T15:05:16.315Z,15.94
2019-05-12T15:07:56.765Z,15.84
2019-05-12T15:10:23.434Z,15.85
2019-05-12T15:12:56.025Z,15.78
2019-05-12T15:15:28.268Z,15.80
2019-05-12T15:18:03.547Z,15.69
2019-05-12T15:20:34.489Z,15.71
2019-05-12T15:23:06.975Z,15.90
2019-05-12T15:25:39.191Z,15.91
2019-05-12T15:28:11.505Z,15.89
2019-05-12T15:30:43.792Z,15.94
2019-05-12T15:33:17.109Z,16.06
2019-05-12T15:35:49.304Z,16.10
2019-05-12T15:38:23.767Z,16.09
2019-05-12T15:40:56.582Z,15.97
2019-05-12T15:43:28.795Z,15.93
2019-05-12T15:46:01.367Z,15.91
2019-05-12T15:48:34.311Z,15.92
2019-05-12T15:51:09.305Z,15.95
2019-05-12T15:53:44.401Z,15.97
2019-05-12T15:56:22.616Z,16.02
2019-05-12T15:58:49.497Z,15.94
2019-05-12T16:01:24.020Z,15.70
2019-05-12T16:03:55.687Z,15.60
2019-05-12T16:06:27.928Z,15.68
2019-05-12T16:09:00.064Z,15.72
2019-05-12T16:11:33.385Z,15.87
2019-05-12T16:14:05.688Z,16.21
2019-05-12T16:16:42.444Z,16.81
2019-05-12T16:19:14.682Z,17.01
2019-05-12T16:21:46.655Z,16.39
2019-05-12T16:24:18.938Z,16.01
2019-05-12T16:26:52.146Z,15.90
2019-05-12T16:29:25.394Z,15.80
2019-05-12T16:31:57.604Z,15.75
2019-05-12T16:34:29.869Z,15.73
2019-05-12T16:37:04.076Z,15.91
2019-05-12T16:39:43.820Z,18.30
2019-05-12T16:42:10.788Z,18.95
2019-05-12T16:44:44.029Z,17.97
2019-05-12T16:47:18.769Z,17.21
2019-05-12T16:49:50.389Z,17.25
2019-05-12T16:52:24.402Z,18.67
2019-05-12T16:54:56.624Z,20.23
2019-05-12T16:57:28.816Z,19.83
2019-05-12T17:00:03.635Z,21.12
2019-05-12T17:02:41.826Z,22.97
2019-05-12T17:05:17.670Z,24.78
2019-05-12T17:07:44.312Z,25.36
2019-05-12T17:10:17.011Z,25.56
2019-05-12T17:12:49.312Z,24.08
2019-05-12T17:15:23.540Z,23.83
2019-05-12T17:18:01.147Z,24.46
2019-05-12T17:20:29.547Z,23.66
2019-05-12T17:23:03.399Z,22.75
2019-05-12T17:25:36.136Z,22.73
2019-05-12T17:28:08.483Z,22.99
2019-05-12T17:30:40.774Z,22.14
2019-05-12T17:33:22.220Z,21.69
2019-05-12T17:35:47.144Z,22.90
2019-05-12T17:38:20.255Z,23.77
2019-05-12T17:40:58.809Z,23.93
2019-05-12T17:43:27.222Z,22.23
2019-05-12T17:46:01.313Z,20.41
2019-05-12T17:48:37.368Z,18.66
2019-05-12T17:51:07.335Z,17.19
2019-05-12T17:53:40.464Z,15.98
2019-05-12T17:56:14.051Z,15.07
2019-05-12T17:58:47.538Z,14.47
2019-05-12T18:01:23.015Z,14.08
2019-05-12T18:03:54.032Z,13.83
2019-05-12T18:06:30.772Z,13.60
2019-05-12T18:09:00.224Z,13.33
2019-05-12T18:11:33.983Z,13.13
2019-05-12T18:14:07.192Z,13.01
2019-05-12T18:16:43.181Z,12.92
2019-05-12T18:19:15.432Z,12.81
2019-05-12T18:21:48.828Z,12.69
2019-05-12T18:24:21.055Z,12.55
2019-05-12T18:26:58.886Z,12.46
2019-05-12T18:29:27.340Z,12.38
2019-05-12T18:31:59.593Z,12.34
2019-05-12T18:34:33.998Z,12.29
2019-05-12T18:37:05.899Z,12.19
2019-05-12T18:39:38.122Z,12.09
2019-05-12T18:42:10.409Z,12.02
2019-05-12T18:44:43.897Z,11.93
2019-05-12T18:47:22.296Z,11.86
2019-05-12T18:49:50.428Z,11.81
2019-05-12T18:52:23.587Z,11.74
2019-05-12T18:54:57.798Z,11.74
2019-05-12T18:57:30.213Z,11.71
2019-05-12T19:00:04.903Z,11.64
2019-05-12T19:02:36.516Z,11.58
2019-05-12T19:05:12.974Z,11.51
2019-05-12T19:07:43.906Z,11.47
2019-05-12T19:10:16.426Z,11.42
2019-05-12T19:12:51.563Z,11.35
2019-05-12T19:15:22.716Z,11.27
2019-05-12T19:17:55.273Z,11.20
2019-05-12T19:20:31.299Z,11.13
2019-05-12T19:23:03.601Z,11.10
2019-05-12T19:25:40.264Z,11.04
2019-05-12T19:28:10.477Z,10.98
2019-05-12T19:30:43.798Z,10.94
2019-05-12T19:33:16.250Z,10.89
2019-05-12T19:35:50.515Z,10.85
2019-05-12T19:38:23.939Z,10.78
2019-05-12T19:41:00.771Z,10.76
2019-05-12T19:43:30.547Z,10.71
2019-05-12T19:46:04.679Z,10.65
2019-05-12T19:48:46.506Z,10.60
2019-05-12T19:51:22.966Z,10.56
2019-05-12T19:53:44.886Z,10.50
2019-05-12T19:56:19.007Z,10.43
2019-05-12T19:58:53.599Z,10.38
2019-05-12T20:01:32.221Z,10.36
2019-05-12T20:04:00.057Z,10.33
2019-05-12T20:06:33.602Z,10.32
2019-05-12T20:09:10.194Z,10.29
2019-05-12T20:11:39.889Z,10.23
2019-05-12T20:14:16.626Z,10.19
2019-05-12T20:16:46.240Z,10.16
2019-05-12T20:19:19.956Z,10.15
2019-05-12T20:21:54.329Z,10.13
2019-05-12T20:24:26.422Z,10.12
2019-05-12T20:26:58.693Z,10.10
2019-05-12T20:29:35.246Z,10.06
2019-05-12T20:32:04.955Z,10.02
2019-05-12T20:34:48.523Z,9.96
2019-05-12T20:37:14.345Z,9.89
2019-05-12T20:39:45.468Z,9.86
2019-05-12T20:42:17.706Z,9.81
2019-05-12T20:44:51.302Z,9.79
2019-05-12T20:47:24.080Z,9.75
2019-05-12T20:49:56.709Z,9.71
2019-05-12T20:52:28.945Z,9.69
2019-05-12T20:55:03.507Z,9.64
2019-05-12T20:57:40.080Z,9.60
2019-05-12T21:00:09.128Z,9.60
2019-05-12T21:02:43.998Z,9.58
2019-05-12T21:05:19.916Z,9.56
2019-05-12T21:07:49.673Z,9.52
2019-05-12T21:10:26.422Z,9.53
2019-05-12T21:12:55.865Z,9.53
2019-05-12T21:15:40.666Z,9.50
2019-05-12T21:18:06.851Z,9.49
2019-05-12T21:20:36.003Z,9.45
2019-05-12T21:23:08.288Z,9.43
2019-05-12T21:25:43.889Z,9.42
2019-05-12T21:28:14.956Z,9.38
2019-05-12T21:30:48.261Z,9.38
2019-05-12T21:33:23.877Z,9.37
2019-05-12T21:35:55.149Z,9.34
2019-05-12T21:38:29.612Z,9.32
2019-05-12T21:41:02.147Z,9.29
2019-05-12T21:43:35.236Z,9.25
2019-05-12T21:46:12.256Z,9.23
2019-05-12T21:48:41.421Z,9.19
2019-05-12T21:51:18.494Z,9.17
2019-05-12T21:53:50.553Z,9.18
2019-05-12T21:56:24.425Z,9.19
2019-05-12T21:58:58.167Z,9.14
2019-05-12T22:01:35.129Z,9.12
2019-05-12T22:04:05.383Z,9.09
2019-05-12T22:06:37.843Z,9.05
2019-05-12T22:09:10.372Z,8.99
2019-05-12T22:11:50.633Z,8.94
2019-05-12T22:14:16.646Z,8.91
2019-05-12T22:16:48.861Z,8.85
2019-05-12T22:19:21.087Z,8.82
2019-05-12T22:21:53.743Z,8.79
2019-05-12T22:24:33.888Z,8.76
2019-05-12T22:27:02.763Z,8.75
2019-05-12T22:29:35.038Z,8.70
2019-05-12T22:32:07.349Z,8.66
2019-05-12T22:34:41.965Z,8.60
2019-05-12T22:37:13.711Z,8.57
2019-05-12T22:39:46.013Z,8.56
2019-05-12T22:42:21.673Z,8.55
2019-05-12T22:45:00.875Z,8.48
2019-05-12T22:47:26.070Z,8.44
2019-05-12T22:49:58.272Z,8.39
2019-05-12T22:52:30.523Z,8.41
2019-05-12T22:55:03.608Z,8.39
2019-05-12T22:57:40.121Z,8.38
2019-05-12T23:00:13.503Z,8.36
2019-05-12T23:02:45.519Z,8.36
2019-05-12T23:05:20.549Z,8.37
2019-05-12T23:07:51.718Z,8.38
2019-05-12T23:10:23.980Z,8.38
2019-05-12T23:13:01.614Z,8.36
2019-05-12T23:15:33.286Z,8.37
2019-05-12T23:18:05.013Z,8.39
2019-05-12T23:20:37.220Z,8.39
2019-05-12T23:23:15.417Z,8.33
2019-05-12T23:25:44.138Z,8.27
2019-05-12T23:28:16.495Z,8.26
2019-05-12T23:30:50.130Z,8.21
2019-05-12T23:33:25.404Z,8.20
2019-05-12T23:35:56.341Z,8.21
2019-05-12T23:38:30.833Z,8.22
2019-05-12T23:41:04.197Z,8.22
2019-05-12T23:43:36.573Z,8.21
2019-05-12T23:46:08.825Z,8.16
2019-05-12T23:48:41.096Z,8.15
2019-05-12T23:51:14.312Z,8.13
2019-05-12T23:53:46.896Z,8.12
2019-05-12T23:56:19.128Z,8.09
2019-05-12T23:58:53.719Z,8.06
